AirNav   Pilot Hours Calculator
 
 637 users online  

NJ53 NJ Highway Authority-Administration Building Helistop
Fords, New Jersey, USA

GOING TO FORDS?


FAA INFORMATION EFFECTIVE 07 NOVEMBER 2019

Location

FAA Identifier: NJ53
Lat/Long: 40-32-14.3770N 074-17-53.5290W
40-32.239617N 074-17.892150W
40.5373269,-74.2982025
(estimated)
Elevation: 112 ft. / 34 m (estimated)
Variation: 12W (1985)
From city: 1 mile SE of FORDS, NJ
(LCTD 1 SW OF WOODBRIDGE.)
Time zone: UTC -5 (UTC -4 during Daylight Saving Time)
Zip code: 07095

Heliport Operations

Heliport use: Private use. Permission required prior to landing
Activation date: 05/1972
Control tower: no
ARTCC: NEW YORK CENTER
FSS: MILLVILLE FLIGHT SERVICE STATION
Attendance: IREG
Wind indicator: lighted
Segmented circle: no

Heliport Communications

WX AWOS-3 at LDJ (5 nm NE): 124.025 (908-862-7383)
WX ASOS at EWR (11 nm NE): PHONE 973-621-2892
WX AWOS-3PT at JRB (16 nm NE): 128.175 (212-425-1534)
WX AWOS-3 at MMU (17 nm N): PHONE 973-290-0135
WX ASOS at SMQ (18 nm W): 120.6 (908-722-2139)

Nearby radio navigation aids

VOR radial/distance  VOR name  Freq  Var
COLr346/14.9COLTS NECK VOR/DME115.4011W
CRIr267/18.9CANARSIE VOR/DME112.3011W
SBJr108/20.4SOLBERG VOR/DME112.9010W
TEBr221/21.5TETERBORO VOR/DME108.4011W
RBVr034/22.0ROBBINSVILLE VORTAC113.8010W
LGAr245/24.5LA GUARDIA VOR/DME113.1012W
JFKr269/24.7KENNEDY VOR/DME115.9012W
BWZr134/28.5BROADWAY VOR/DME114.2011W
ARDr069/32.6YARDLEY VOR/DME108.2010W
SAXr172/33.6SPARTA VORTAC115.7011W
GXUr035/34.5MC GUIRE VORTAC110.6012W
STWr148/37.8STILLWATER VOR/DME109.6011W

 
NDB name  Hdg/Dist  Freq  Var  ID
CHATHAM167/13.625413WCAT -.-. .- -
LAKEHURST014/29.639611WNEL -. . .-..

Heliport Services

Airframe service: NONE
Powerplant service: NONE

Runway Information

Helipad H1

Dimensions: 100 x 100 ft. / 30 x 30 m
Surface: concrete, in good condition
Latitude: 40-32.239617N
Longitude: 074-17.892150W
Elevation: 112.0 ft.
Traffic pattern: leftleft
Markings: none, in fair condition
Obstructions: pline, 75 ft. from runway
LGTD POLE LIGHTS NEAR HELIPORT.

Heliport Ownership and Management from official FAA records

Ownership: Publicly-owned
Owner: NJ HWY AUTH
1 TURNPIKE PLAZA
WOODBRIDGE, NJ 07095
Phone (732) 750-5300
Manager: HENRY EIBEL
1 TURNPIKE PLAZA
WOODBRIDGE, NJ 07095
Phone (732) 750-5300

Additional Remarks

FOR CD CTC NEW YORK APCH AT 800-645-3206.

Instrument Procedures

There are no published instrument procedures at NJ53.

Some nearby airports with instrument procedures:

KLDJ - Linden Airport (5 nm NE)
KEWR - Newark Liberty International Airport (11 nm NE)
3N6 - Old Bridge Airport (13 nm S)
47N - Central Jersey Regional Airport (14 nm W)
KJRB - Downtown Manhattan/Wall Street Heliport (16 nm NE)
KMMU - Morristown Municipal Airport (17 nm N)
KSMQ - Somerset Airport (18 nm W)
39N - Princeton Airport (18 nm SW)
KJRA - West 30th St Heliport (19 nm NE)
6N5 - East 34th Street Heliport (19 nm NE)
 
Loc | Ops | Rwys | IFR | FBO | Links
Com | Nav | Svcs | Stats | Notes
Area around NJ53 (NJ Highway Authority-Administration Building Helistop)
 
Road maps at: MapQuest Bing Google
 
Aerial photo
No photo
 
Sectional chart

 
Airport distance calculator
Flying to NJ Highway Authority-Administration Building Helistop? Find the distance to fly.

From to NJ53

Sunrise and sunset
Times for 19-Nov-2019
 Local
(UTC-5)
 Zulu
(UTC)
Morning civil twilight06:2011:20
Sunrise06:4911:49
Sunset16:3621:36
Evening civil twilight17:0622:06

Current date and time
Zulu (UTC)  19-Nov-2019 05:02:05
Local (UTC-5)  19-Nov-2019 00:02:05
 
METAR
KLDJ 
5nm NE 
190455Z AUTO 00000KT 5SM HZ OVC010 A2971 RMK AO2
KEWR 
11nm NE 
190451Z 00000KT 8SM -RA BKN006 OVC011 06/04 A2971 RMK AO2 SLP059 P0002 T00560044 400610028 $
KMMU 
16nm N 
190455Z AUTO 00000KT 3SM -DZ OVC012 04/04 A2970 RMK AO2
KJRB 
16nm NE 
190456Z AUTO 28005KT OVC008 06/05 A2971 RMK AO2 SLP062 P0004 T00610050 400720050 PWINO
KSMQ 
17nm W 
ASOS 120.60 908-722-2139
190453Z AUTO 00000KT 10SM OVC019 05/04 A2971 RMK AO2 SLP061 T00500039 400610033 $
TAF
KEWR 
11nm NE 
190220Z 1902/2006 34006KT 3SM RA BR OVC007 FM190600 30005KT 4SM -RA BR OVC009 FM190900 27006KT 6SM BR SCT009 OVC015 FM191300 28007KT P6SM SCT030 FM200000 32007KT P6SM BKN035 BKN150
NOTAMs
Click for the latest NOTAMs
NOTAMs are issued by the DoD/FAA and will open in a separate window not controlled by AirNav.

 

 
 

Would you like to see your business listed on this page?

 If your business provides an interesting product or service to pilots, flight crews, aircraft, or users of the NJ Highway Authority-Administration Building Helistop, you should consider listing it here.  To start the listing process, click on the button below
 
Add a business
 

Other Pages about NJ Highway Authority-Administration Building Helistop

Update a link
 
Copyright © AirNav, LLC. All rights reserved. Privacy Policy  Contact